createdAt,value
2019-03-22T08:52:06.428Z,26.35
2019-03-22T08:52:16.582Z,26.28
2019-03-22T08:52:26.794Z,26.20
2019-03-22T08:52:36.963Z,26.12
2019-03-22T08:52:47.149Z,26.06
2019-03-22T08:52:57.401Z,25.98
2019-03-22T08:53:08.387Z,25.94
2019-03-22T08:53:18.550Z,25.91
2019-03-22T08:53:31.350Z,25.77
2019-03-22T08:53:54.399Z,25.67
2019-03-22T08:53:57.628Z,25.65
2019-03-22T08:54:12.740Z,25.61
2019-03-22T08:54:22.977Z,25.61
2019-03-22T08:54:33.154Z,25.61
2019-03-22T08:54:43.298Z,25.58
2019-03-22T08:54:54.362Z,25.55
2019-03-22T08:55:04.550Z,25.54
2019-03-22T08:55:19.602Z,25.52
2019-03-22T08:55:29.772Z,25.47
2019-03-22T08:55:39.942Z,25.47
2019-03-22T08:55:50.088Z,25.43
2019-03-22T08:56:00.242Z,25.40
2019-03-22T08:56:10.419Z,25.40
2019-03-22T08:56:20.566Z,25.38
2019-03-22T08:56:30.796Z,25.38
2019-03-22T08:56:41.008Z,25.36
2019-03-22T08:56:51.235Z,25.36
2019-03-22T08:57:01.417Z,25.32
2019-03-22T08:57:11.598Z,25.32
2019-03-22T08:57:24.812Z,25.30
2019-03-22T08:57:35.378Z,25.27
2019-03-22T08:57:45.527Z,25.23
2019-03-22T08:57:55.688Z,25.23
2019-03-22T08:58:05.888Z,25.21
2019-03-22T08:58:18.501Z,25.20
2019-03-22T08:58:29.069Z,25.20
2019-03-22T08:58:39.265Z,25.18
2019-03-22T08:58:49.460Z,25.17
2019-03-22T08:58:59.629Z,25.17
2019-03-22T08:59:09.869Z,25.14
2019-03-22T08:59:20.078Z,25.14
2019-03-22T08:59:30.240Z,25.14
2019-03-22T08:59:40.382Z,25.10
2019-03-22T08:59:50.554Z,25.14
2019-03-22T09:00:00.696Z,25.10
2019-03-22T09:00:10.898Z,25.09
2019-03-22T09:00:21.113Z,25.10
2019-03-22T09:00:39.311Z,25.09
2019-03-22T09:00:57.209Z,25.09
2019-03-22T09:01:03.457Z,25.08
2019-03-22T09:01:13.644Z,25.08
2019-03-22T09:01:23.787Z,25.06
2019-03-22T09:01:33.986Z,25.06
2019-03-22T09:01:44.126Z,25.06
2019-03-22T09:01:54.290Z,25.05
2019-03-22T09:02:04.500Z,25.06
2019-03-22T09:02:14.659Z,25.06
2019-03-22T09:02:24.827Z,25.03
2019-03-22T09:02:35.082Z,25.03
2019-03-22T09:02:45.236Z,25.03
2019-03-22T09:02:55.394Z,25.03
2019-03-22T09:03:05.537Z,25.02
2019-03-22T09:03:15.685Z,25.02
2019-03-22T09:03:25.878Z,25.02
2019-03-22T09:03:36.025Z,25.03
2019-03-22T09:03:46.170Z,25.05
2019-03-22T09:03:56.347Z,25.05
2019-03-22T09:04:06.592Z,25.05
2019-03-22T09:04:16.876Z,25.08
2019-03-22T09:04:27.037Z,25.06
2019-03-22T09:04:37.178Z,25.08
2019-03-22T09:04:47.414Z,25.08
2019-03-22T09:04:57.582Z,25.08
2019-03-22T09:05:07.759Z,25.06
2019-03-22T09:05:17.902Z,25.08
2019-03-22T09:05:28.053Z,25.08
2019-03-22T09:05:38.261Z,25.08
2019-03-22T09:05:48.447Z,25.09
2019-03-22T09:06:04.527Z,25.08
2019-03-22T09:06:14.682Z,25.08
2019-03-22T09:06:24.823Z,25.08
2019-03-22T09:06:35.031Z,25.06
2019-03-22T09:06:45.205Z,25.05
2019-03-22T09:06:55.395Z,25.08
2019-03-22T09:07:05.544Z,25.06
2019-03-22T09:07:15.693Z,25.06
2019-03-22T09:07:25.833Z,25.08
2019-03-22T09:07:36.003Z,25.06
2019-03-22T09:07:48.829Z,25.06
2019-03-22T09:07:58.973Z,25.06
2019-03-22T09:08:09.158Z,25.06
2019-03-22T09:08:19.300Z,25.08
2019-03-22T09:08:29.448Z,25.06
2019-03-22T09:08:39.607Z,25.05
2019-03-22T09:08:49.761Z,25.15
2019-03-22T09:08:59.908Z,26.54
2019-03-22T09:09:10.066Z,27.79
2019-03-22T09:09:20.206Z,28.68
2019-03-22T09:09:40.965Z,29.41
2019-03-22T09:09:46.469Z,29.92
2019-03-22T09:09:56.620Z,30.27
2019-03-22T09:10:07.329Z,30.53
2019-03-22T09:10:17.465Z,30.75
2019-03-22T09:10:27.619Z,30.89
2019-03-22T09:10:38.438Z,30.67
2019-03-22T09:10:48.617Z,30.20
2019-03-22T09:10:58.761Z,29.71
2019-03-22T09:11:13.876Z,29.04
2019-03-22T09:11:24.017Z,28.68
2019-03-22T09:11:34.177Z,28.36
2019-03-22T09:11:44.360Z,28.09
2019-03-22T09:11:54.530Z,27.84
2019-03-22T09:12:04.734Z,27.55
2019-03-22T09:12:14.882Z,27.32
2019-03-22T09:12:26.917Z,27.07
2019-03-22T09:12:37.249Z,26.85
2019-03-22T09:12:47.385Z,26.67
2019-03-22T09:12:57.635Z,26.54
2019-03-22T09:13:07.866Z,26.40
2019-03-22T09:13:18.985Z,26.30
2019-03-22T09:13:29.175Z,26.20
2019-03-22T09:13:39.437Z,26.10
2019-03-22T09:13:49.725Z,26.01
2019-03-22T09:13:59.883Z,25.94
2019-03-22T09:14:10.168Z,25.91
2019-03-22T09:14:20.415Z,25.87
2019-03-22T09:14:30.579Z,25.79
2019-03-22T09:14:40.801Z,25.73
2019-03-22T09:14:50.942Z,25.69
2019-03-22T09:15:01.087Z,25.64
2019-03-22T09:15:11.222Z,25.61
2019-03-22T09:15:21.362Z,25.60
2019-03-22T09:15:41.158Z,25.58
2019-03-22T09:15:47.667Z,25.51
2019-03-22T09:15:57.809Z,25.51
2019-03-22T09:16:08.068Z,25.50
2019-03-22T09:16:18.213Z,25.46
2019-03-22T09:16:30.733Z,25.46
2019-03-22T09:16:41.103Z,25.46
2019-03-22T09:16:56.226Z,25.43
2019-03-22T09:17:06.486Z,25.43
2019-03-22T09:17:16.701Z,25.42
2019-03-22T09:17:26.950Z,25.42
2019-03-22T09:17:37.131Z,25.39
2019-03-22T09:17:47.356Z,25.38
2019-03-22T09:17:57.553Z,25.32
2019-03-22T09:18:07.772Z,25.32
2019-03-22T09:18:17.963Z,25.30
2019-03-22T09:18:28.152Z,25.32
2019-03-22T09:18:38.330Z,25.32
2019-03-22T09:18:48.471Z,25.33
2019-03-22T09:18:58.623Z,25.33
2019-03-22T09:19:08.775Z,25.32
2019-03-22T09:19:18.957Z,25.30
2019-03-22T09:19:29.134Z,25.33
2019-03-22T09:19:39.410Z,25.32
2019-03-22T09:19:51.173Z,25.32
2019-03-22T09:20:01.478Z,25.30
2019-03-22T09:20:11.740Z,25.30
2019-03-22T09:20:21.887Z,25.32
2019-03-22T09:20:32.077Z,25.30
2019-03-22T09:20:42.225Z,25.27
2019-03-22T09:20:52.371Z,25.28
2019-03-22T09:21:02.534Z,25.30
2019-03-22T09:21:12.722Z,25.30
2019-03-22T09:21:22.991Z,25.32
2019-03-22T09:21:33.121Z,25.33
2019-03-22T09:21:43.262Z,25.32
2019-03-22T09:21:53.433Z,25.28
2019-03-22T09:22:03.583Z,25.30
2019-03-22T09:22:13.733Z,25.30
2019-03-22T09:22:23.896Z,25.32
2019-03-22T09:22:34.089Z,25.30
2019-03-22T09:22:44.227Z,25.32
2019-03-22T09:22:54.395Z,25.32
2019-03-22T09:23:04.651Z,25.30
2019-03-22T09:23:14.838Z,25.28
2019-03-22T09:23:25.044Z,25.30
2019-03-22T09:23:35.184Z,25.30
2019-03-22T09:23:45.331Z,25.33
2019-03-22T09:23:55.505Z,25.33
2019-03-22T09:24:05.751Z,25.35
2019-03-22T09:24:15.911Z,25.33
2019-03-22T09:24:38.266Z,25.35
2019-03-22T09:24:42.171Z,25.36
2019-03-22T09:24:52.317Z,25.35
2019-03-22T09:25:02.496Z,25.33
2019-03-22T09:25:12.642Z,25.33
2019-03-22T09:25:22.787Z,25.32
2019-03-22T09:25:32.934Z,25.30
2019-03-22T09:25:43.108Z,25.28
2019-03-22T09:25:53.268Z,25.32
2019-03-22T09:26:03.478Z,25.32
2019-03-22T09:26:13.667Z,25.32
2019-03-22T09:26:23.844Z,25.33
2019-03-22T09:26:46.833Z,25.35
2019-03-22T09:26:50.147Z,25.38
2019-03-22T09:27:00.306Z,25.36
2019-03-22T09:27:10.466Z,25.38
2019-03-22T09:27:20.656Z,25.38
2019-03-22T09:27:30.805Z,25.38
2019-03-22T09:27:40.964Z,25.39
2019-03-22T09:27:51.126Z,25.39
2019-03-22T09:28:01.316Z,25.42
2019-03-22T09:28:11.472Z,25.40
2019-03-22T09:28:21.643Z,25.40
2019-03-22T09:28:31.842Z,25.42
2019-03-22T09:28:41.997Z,25.42
2019-03-22T09:28:52.165Z,25.42
2019-03-22T09:29:02.340Z,25.42
2019-03-22T09:29:12.503Z,25.40
2019-03-22T09:29:22.702Z,25.38
2019-03-22T09:29:38.758Z,25.35
2019-03-22T09:29:48.920Z,25.33
2019-03-22T09:29:59.867Z,25.33
2019-03-22T09:30:10.054Z,25.32
2019-03-22T09:30:20.236Z,25.30
2019-03-22T09:30:30.415Z,25.30
2019-03-22T09:30:40.587Z,25.30
2019-03-22T09:30:50.742Z,25.28
2019-03-22T09:31:10.179Z,25.30
2019-03-22T09:31:17.008Z,25.33
2019-03-22T09:31:27.178Z,25.33
2019-03-22T09:31:37.336Z,25.33
2019-03-22T09:31:47.482Z,25.33
2019-03-22T09:31:57.625Z,25.32
2019-03-22T09:32:07.798Z,25.32
2019-03-22T09:32:18.001Z,25.30
2019-03-22T09:32:28.217Z,25.28
2019-03-22T09:32:38.396Z,25.27
2019-03-22T09:32:48.628Z,25.27
2019-03-22T09:32:58.788Z,25.25
2019-03-22T09:33:08.946Z,25.23
2019-03-22T09:33:19.099Z,25.23
2019-03-22T09:33:29.285Z,25.24
2019-03-22T09:33:39.443Z,25.23
2019-03-22T09:33:49.610Z,25.25
2019-03-22T09:33:59.769Z,25.27
2019-03-22T09:34:09.916Z,25.27
2019-03-22T09:34:32.929Z,25.27
2019-03-22T09:34:36.201Z,25.27
2019-03-22T09:34:46.352Z,25.25
2019-03-22T09:34:56.517Z,25.24
2019-03-22T09:35:06.717Z,25.25
2019-03-22T09:35:16.866Z,25.25
2019-03-22T09:35:27.028Z,25.27
2019-03-22T09:35:37.172Z,25.25
2019-03-22T09:35:47.366Z,25.27
2019-03-22T09:35:57.523Z,25.25
2019-03-22T09:36:08.343Z,25.25
2019-03-22T09:36:18.504Z,25.25
2019-03-22T09:36:28.665Z,25.23
2019-03-22T09:36:38.824Z,25.24
2019-03-22T09:36:49.035Z,25.23
2019-03-22T09:36:59.197Z,25.23
2019-03-22T09:37:09.405Z,25.23
2019-03-22T09:37:19.555Z,25.24
2019-03-22T09:37:29.795Z,25.25
2019-03-22T09:37:40.830Z,25.24
2019-03-22T09:37:50.977Z,25.27
2019-03-22T09:38:12.378Z,25.27
2019-03-22T09:38:17.244Z,25.32
2019-03-22T09:38:28.564Z,25.33
2019-03-22T09:38:38.940Z,25.32
2019-03-22T09:38:49.896Z,25.32
2019-03-22T09:39:00.085Z,25.30
2019-03-22T09:39:10.238Z,25.30
2019-03-22T09:39:20.382Z,25.32
2019-03-22T09:39:30.551Z,25.35
2019-03-22T09:39:40.702Z,25.32
2019-03-22T09:39:50.842Z,25.33
2019-03-22T09:40:01.036Z,25.28
2019-03-22T09:40:11.184Z,25.28
2019-03-22T09:40:21.330Z,25.25
2019-03-22T09:40:31.524Z,25.24
2019-03-22T09:40:41.699Z,25.25
2019-03-22T09:40:51.905Z,25.24
2019-03-22T09:41:02.061Z,25.24
2019-03-22T09:41:12.285Z,25.25
2019-03-22T09:41:27.386Z,25.28
2019-03-22T09:41:37.532Z,25.28
2019-03-22T09:41:47.695Z,25.30
2019-03-22T09:41:57.869Z,25.30
2019-03-22T09:42:08.024Z,25.28
2019-03-22T09:42:18.176Z,25.28
2019-03-22T09:42:28.364Z,25.30
2019-03-22T09:42:38.535Z,25.30
2019-03-22T09:42:49.193Z,25.30
2019-03-22T09:42:59.370Z,25.28
2019-03-22T09:43:09.559Z,25.28
2019-03-22T09:43:19.742Z,25.32
2019-03-22T09:43:29.907Z,25.35
2019-03-22T09:43:40.104Z,25.38
2019-03-22T09:43:50.257Z,25.42
2019-03-22T09:44:00.413Z,25.43
2019-03-22T09:44:10.578Z,25.45
2019-03-22T09:44:20.755Z,25.46
2019-03-22T09:44:42.787Z,25.45
2019-03-22T09:44:47.034Z,25.43
2019-03-22T09:44:57.198Z,25.43
2019-03-22T09:45:07.340Z,25.43
2019-03-22T09:45:17.486Z,25.42
2019-03-22T09:45:27.633Z,25.40
2019-03-22T09:45:37.773Z,25.42
2019-03-22T09:45:47.939Z,25.39
2019-03-22T09:45:58.097Z,25.39
2019-03-22T09:46:08.234Z,25.39
2019-03-22T09:46:18.482Z,25.39
2019-03-22T09:46:28.659Z,25.40
2019-03-22T09:46:43.789Z,25.40
2019-03-22T09:46:54.002Z,25.42
2019-03-22T09:47:04.179Z,25.46
2019-03-22T09:47:16.562Z,25.50
2019-03-22T09:47:30.414Z,25.55
2019-03-22T09:47:40.613Z,25.61
2019-03-22T09:47:50.810Z,25.67
2019-03-22T09:48:01.020Z,25.69
2019-03-22T09:48:11.234Z,25.70
2019-03-22T09:48:21.394Z,25.70
2019-03-22T09:48:31.550Z,25.67
2019-03-22T09:48:41.749Z,25.64
2019-03-22T09:48:51.898Z,25.61
2019-03-22T09:49:02.069Z,25.61
2019-03-22T09:49:12.212Z,25.58
2019-03-22T09:49:22.385Z,25.57
2019-03-22T09:49:32.561Z,25.55
2019-03-22T09:49:42.705Z,25.54
2019-03-22T09:49:52.880Z,25.52
2019-03-22T09:50:03.044Z,25.52
2019-03-22T09:50:13.205Z,25.52
2019-03-22T09:50:23.404Z,25.52
2019-03-22T09:50:33.623Z,25.52
2019-03-22T09:50:43.762Z,25.52
2019-03-22T09:50:53.942Z,25.52
2019-03-22T09:51:04.099Z,25.51
2019-03-22T09:51:14.251Z,25.50
2019-03-22T09:51:24.443Z,25.50
2019-03-22T09:51:34.656Z,25.51
2019-03-22T09:51:44.843Z,25.47
2019-03-22T09:51:55.431Z,25.51
2019-03-22T09:52:05.778Z,25.57
2019-03-22T09:52:15.934Z,25.64
2019-03-22T09:52:26.076Z,25.70
2019-03-22T09:52:36.214Z,25.73
2019-03-22T09:52:46.396Z,25.76
2019-03-22T09:52:56.662Z,25.77
2019-03-22T09:53:06.849Z,25.82
2019-03-22T09:53:16.984Z,25.85
2019-03-22T09:53:30.301Z,25.87
2019-03-22T09:53:40.703Z,25.92
2019-03-22T09:53:50.855Z,25.94
2019-03-22T09:54:00.985Z,25.94
2019-03-22T09:54:11.119Z,25.97
2019-03-22T09:54:21.255Z,26.02
2019-03-22T09:54:31.424Z,26.01
2019-03-22T09:54:41.600Z,25.95
2019-03-22T09:54:51.732Z,25.90
2019-03-22T09:55:12.478Z,25.87
2019-03-22T09:55:18.047Z,25.75
2019-03-22T09:55:28.192Z,25.72
2019-03-22T09:55:38.360Z,25.65
2019-03-22T09:55:48.502Z,25.64
2019-03-22T09:55:58.708Z,25.58
2019-03-22T09:56:08.860Z,25.54
2019-03-22T09:56:19.018Z,25.51
2019-03-22T09:56:29.165Z,25.52
2019-03-22T09:56:47.068Z,25.52
2019-03-22T09:56:55.475Z,25.46
2019-03-22T09:57:05.711Z,25.43
2019-03-22T09:57:15.882Z,25.38
2019-03-22T09:57:26.097Z,25.35
2019-03-22T09:57:36.271Z,25.36
2019-03-22T09:57:49.245Z,25.38
2019-03-22T09:57:59.651Z,25.40
2019-03-22T09:58:09.807Z,25.39
2019-03-22T09:58:20.027Z,25.36
2019-03-22T09:58:30.163Z,25.35
2019-03-22T09:58:40.339Z,25.32
2019-03-22T09:58:50.501Z,25.28
2019-03-22T09:59:00.641Z,25.30
2019-03-22T09:59:10.817Z,25.32
2019-03-22T09:59:21.000Z,25.30
2019-03-22T09:59:31.169Z,25.32
2019-03-22T09:59:41.331Z,25.30
2019-03-22T09:59:51.491Z,25.30
2019-03-22T10:00:01.685Z,25.30
2019-03-22T10:00:11.849Z,25.30
2019-03-22T10:00:21.987Z,25.30
2019-03-22T10:00:32.146Z,25.30
2019-03-22T10:00:42.342Z,25.33
2019-03-22T10:00:52.543Z,25.35
2019-03-22T10:01:02.796Z,25.35
2019-03-22T10:01:23.175Z,25.35
2019-03-22T10:01:29.138Z,25.33
2019-03-22T10:01:39.338Z,25.33
2019-03-22T10:01:49.509Z,25.36
2019-03-22T10:01:59.742Z,25.36
2019-03-22T10:02:09.935Z,25.38
2019-03-22T10:02:20.119Z,25.38
2019-03-22T10:02:30.268Z,25.36
2019-03-22T10:02:40.451Z,25.40
2019-03-22T10:02:50.602Z,25.45
2019-03-22T10:03:00.806Z,25.45
2019-03-22T10:03:10.973Z,25.43
2019-03-22T10:03:21.112Z,25.42
2019-03-22T10:03:31.267Z,25.40
2019-03-22T10:03:42.643Z,25.38
2019-03-22T10:03:52.955Z,25.39
2019-03-22T10:04:03.091Z,25.39
2019-03-22T10:04:13.239Z,25.39
2019-03-22T10:04:23.372Z,25.42
2019-03-22T10:04:33.509Z,25.43
2019-03-22T10:04:43.681Z,25.43
2019-03-22T10:04:53.896Z,25.45
2019-03-22T10:05:04.104Z,25.50
2019-03-22T10:05:14.265Z,25.57
2019-03-22T10:05:24.421Z,25.62
2019-03-22T10:05:34.563Z,25.72
2019-03-22T10:05:44.727Z,25.77
2019-03-22T10:05:54.895Z,25.77
2019-03-22T10:06:05.042Z,25.76
2019-03-22T10:06:15.181Z,25.75
2019-03-22T10:06:25.376Z,25.72
2019-03-22T10:06:35.568Z,25.67
2019-03-22T10:06:45.935Z,25.67
2019-03-22T10:06:56.111Z,25.67
2019-03-22T10:07:06.293Z,25.69
2019-03-22T10:07:16.477Z,25.69
2019-03-22T10:07:26.669Z,25.69
2019-03-22T10:07:36.828Z,25.69
2019-03-22T10:07:49.983Z,25.67
2019-03-22T10:08:00.323Z,25.70
2019-03-22T10:08:10.527Z,25.70
2019-03-22T10:08:20.762Z,25.70
2019-03-22T10:08:30.910Z,25.69
2019-03-22T10:08:41.065Z,25.67
2019-03-22T10:08:51.242Z,25.69
2019-03-22T10:09:05.074Z,25.65
2019-03-22T10:09:15.552Z,25.62
2019-03-22T10:09:25.698Z,25.61
2019-03-22T10:09:35.899Z,25.60
2019-03-22T10:09:46.037Z,25.60
2019-03-22T10:09:56.276Z,25.57
2019-03-22T10:10:06.414Z,25.57
2019-03-22T10:10:16.548Z,25.60
2019-03-22T10:10:26.674Z,25.64
2019-03-22T10:10:36.804Z,25.69
2019-03-22T10:10:47.003Z,25.70
2019-03-22T10:10:57.138Z,25.69
2019-03-22T10:11:07.353Z,25.65
2019-03-22T10:11:17.514Z,25.65
2019-03-22T10:11:27.653Z,25.61
2019-03-22T10:11:37.853Z,25.61
2019-03-22T10:11:48.039Z,25.61
2019-03-22T10:11:58.222Z,25.60
2019-03-22T10:12:08.376Z,25.61
2019-03-22T10:12:18.526Z,25.60
2019-03-22T10:12:28.739Z,25.55
2019-03-22T10:12:38.910Z,25.55
2019-03-22T10:12:49.044Z,25.54
2019-03-22T10:12:59.273Z,25.54
2019-03-22T10:13:09.434Z,25.52
2019-03-22T10:13:19.578Z,25.52
2019-03-22T10:13:29.755Z,25.52
2019-03-22T10:13:39.944Z,25.50
2019-03-22T10:13:50.091Z,25.46
2019-03-22T10:14:00.291Z,25.50
2019-03-22T10:14:10.479Z,25.50
2019-03-22T10:14:21.437Z,25.54
2019-03-22T10:14:31.815Z,25.62
2019-03-22T10:14:42.018Z,25.73
2019-03-22T10:14:52.156Z,25.76
2019-03-22T10:15:02.294Z,25.76
2019-03-22T10:15:12.468Z,25.75
2019-03-22T10:15:22.619Z,25.75
2019-03-22T10:15:32.819Z,25.70
2019-03-22T10:15:43.000Z,25.69
2019-03-22T10:15:53.131Z,25.65
2019-03-22T10:16:03.279Z,25.65
2019-03-22T10:16:13.411Z,25.62
2019-03-22T10:16:23.585Z,25.60
2019-03-22T10:16:33.740Z,25.60
2019-03-22T10:16:43.874Z,25.67
2019-03-22T10:16:54.035Z,25.80
2019-03-22T10:17:04.274Z,25.83
2019-03-22T10:17:14.422Z,25.90
2019-03-22T10:17:24.559Z,25.95
2019-03-22T10:17:34.696Z,25.99
2019-03-22T10:17:44.834Z,26.05
2019-03-22T10:17:55.047Z,26.07
2019-03-22T10:18:05.247Z,26.09
2019-03-22T10:18:15.465Z,26.07
2019-03-22T10:18:25.608Z,26.01
2019-03-22T10:18:36.978Z,25.95
2019-03-22T10:18:47.218Z,25.90
2019-03-22T10:18:57.356Z,25.87
2019-03-22T10:19:07.495Z,25.83
2019-03-22T10:19:17.646Z,25.80
2019-03-22T10:19:27.791Z,25.77
2019-03-22T10:19:37.943Z,25.80
2019-03-22T10:19:48.092Z,25.85
2019-03-22T10:19:58.266Z,25.91
2019-03-22T10:20:08.537Z,25.91
2019-03-22T10:20:18.691Z,25.90
2019-03-22T10:20:28.821Z,25.90
2019-03-22T10:20:38.973Z,25.87
2019-03-22T10:20:49.133Z,25.83
2019-03-22T10:20:59.322Z,25.80
2019-03-22T10:21:21.953Z,25.79
2019-03-22T10:21:25.552Z,25.76
2019-03-22T10:21:35.716Z,25.76
2019-03-22T10:21:45.860Z,25.75
2019-03-22T10:21:56.009Z,25.82
2019-03-22T10:22:06.233Z,25.88
2019-03-22T10:22:16.378Z,25.88
2019-03-22T10:22:26.593Z,25.85
2019-03-22T10:22:36.828Z,25.83
2019-03-22T10:22:47.005Z,25.79
2019-03-22T10:22:57.203Z,25.75
2019-03-22T10:23:07.367Z,25.72
2019-03-22T10:23:17.539Z,25.67
2019-03-22T10:23:27.702Z,25.64
2019-03-22T10:23:37.842Z,25.61
2019-03-22T10:23:47.987Z,25.57
2019-03-22T10:23:58.240Z,25.55
2019-03-22T10:24:08.432Z,25.52
2019-03-22T10:24:18.584Z,25.50
2019-03-22T10:24:28.721Z,25.47
2019-03-22T10:24:38.917Z,25.47
2019-03-22T10:24:49.075Z,25.47
2019-03-22T10:24:59.261Z,25.46
2019-03-22T10:25:09.388Z,25.46
2019-03-22T10:25:19.560Z,25.43
2019-03-22T10:25:29.734Z,25.45
2019-03-22T10:25:39.883Z,25.54
2019-03-22T10:25:50.088Z,25.61
2019-03-22T10:26:00.219Z,25.67
2019-03-22T10:26:10.414Z,25.75
2019-03-22T10:26:20.570Z,25.85
2019-03-22T10:26:30.708Z,25.87
2019-03-22T10:26:40.887Z,25.85
2019-03-22T10:26:51.073Z,25.85
2019-03-22T10:27:01.240Z,25.83
2019-03-22T10:27:11.445Z,25.79
2019-03-22T10:27:21.587Z,25.77
2019-03-22T10:27:31.952Z,25.73
2019-03-22T10:27:42.143Z,25.67
2019-03-22T10:27:52.270Z,25.65
2019-03-22T10:28:02.409Z,25.62
2019-03-22T10:28:12.569Z,25.62
2019-03-22T10:28:22.699Z,25.58
2019-03-22T10:28:32.854Z,25.55
2019-03-22T10:28:42.992Z,25.57
2019-03-22T10:28:53.128Z,25.64
2019-03-22T10:29:03.309Z,25.72
2019-03-22T10:29:13.761Z,25.80
2019-03-22T10:29:23.967Z,25.88
2019-03-22T10:29:34.104Z,25.92
2019-03-22T10:29:44.278Z,25.99
2019-03-22T10:29:54.441Z,26.02
2019-03-22T10:30:04.695Z,25.98
2019-03-22T10:30:14.890Z,25.92
2019-03-22T10:30:25.075Z,25.91
2019-03-22T10:30:35.237Z,25.94
2019-03-22T10:30:45.412Z,25.99
2019-03-22T10:30:55.603Z,26.01
2019-03-22T10:31:05.775Z,26.05
2019-03-22T10:31:15.926Z,26.09
2019-03-22T10:31:36.379Z,26.07
2019-03-22T10:31:42.176Z,26.09
2019-03-22T10:31:52.306Z,26.15
2019-03-22T10:32:02.440Z,26.20
2019-03-22T10:32:12.591Z,26.20
2019-03-22T10:32:23.962Z,26.17
2019-03-22T10:32:34.302Z,26.12
2019-03-22T10:32:44.527Z,26.07
2019-03-22T10:32:54.714Z,25.99
2019-03-22T10:33:04.851Z,25.95
2019-03-22T10:33:22.639Z,25.90
2019-03-22T10:33:31.125Z,25.83
2019-03-22T10:33:41.282Z,25.80
2019-03-22T10:33:51.449Z,25.77
2019-03-22T10:34:01.633Z,25.76
2019-03-22T10:34:11.781Z,25.75
2019-03-22T10:34:21.913Z,25.73
2019-03-22T10:34:32.083Z,25.72
2019-03-22T10:34:42.214Z,25.69
2019-03-22T10:34:52.374Z,25.67
2019-03-22T10:35:02.533Z,25.64
2019-03-22T10:35:25.433Z,25.61
2019-03-22T10:35:28.816Z,25.62
2019-03-22T10:35:39.120Z,25.70
2019-03-22T10:35:49.288Z,25.70
2019-03-22T10:35:59.419Z,25.72
2019-03-22T10:36:09.568Z,25.77
2019-03-22T10:36:19.704Z,25.80
2019-03-22T10:36:29.914Z,25.87
2019-03-22T10:36:40.060Z,25.90
2019-03-22T10:36:50.249Z,25.98
2019-03-22T10:37:00.421Z,26.05
2019-03-22T10:37:10.599Z,26.06
2019-03-22T10:37:20.737Z,26.10
2019-03-22T10:37:30.867Z,26.12
2019-03-22T10:37:41.000Z,26.10
2019-03-22T10:37:51.156Z,26.12
2019-03-22T10:38:04.616Z,26.10
2019-03-22T10:38:16.222Z,26.17
2019-03-22T10:38:31.810Z,26.26
2019-03-22T10:38:43.155Z,26.33
2019-03-22T10:38:53.339Z,26.39
2019-03-22T10:39:03.474Z,26.40
2019-03-22T10:39:13.616Z,26.40
2019-03-22T10:39:23.772Z,26.43
2019-03-22T10:39:33.992Z,26.43
2019-03-22T10:39:44.151Z,26.43
2019-03-22T10:39:54.416Z,26.40
2019-03-22T10:40:04.617Z,26.39
2019-03-22T10:40:14.774Z,26.37
2019-03-22T10:40:25.034Z,26.40
2019-03-22T10:40:35.225Z,26.36
2019-03-22T10:40:45.410Z,26.32
2019-03-22T10:40:55.712Z,26.28
2019-03-22T10:41:05.921Z,26.28
2019-03-22T10:41:16.101Z,26.26
2019-03-22T10:41:26.303Z,26.26
2019-03-22T10:41:36.467Z,26.23
2019-03-22T10:41:46.675Z,26.29
2019-03-22T10:41:56.934Z,26.30
2019-03-22T10:42:07.266Z,26.30
2019-03-22T10:42:17.528Z,26.32
2019-03-22T10:42:27.693Z,26.33
2019-03-22T10:42:37.850Z,26.37
2019-03-22T10:42:48.090Z,26.33
2019-03-22T10:42:58.333Z,26.30
2019-03-22T10:43:08.547Z,26.33
2019-03-22T10:43:18.699Z,26.29
2019-03-22T10:43:28.837Z,26.23
2019-03-22T10:43:39.010Z,26.18
2019-03-22T10:43:49.139Z,26.20
2019-03-22T10:43:59.344Z,26.21
2019-03-22T10:44:09.486Z,26.15
2019-03-22T10:45:33.438Z,25.39
2019-03-22T10:46:08.927Z,25.13
2019-03-22T10:46:19.215Z,25.05
2019-03-22T10:46:35.263Z,24.96
2019-03-22T10:46:45.434Z,24.90
2019-03-22T10:46:55.659Z,24.87
2019-03-22T10:47:05.854Z,24.83
2019-03-22T10:47:18.041Z,24.80
2019-03-22T10:47:28.574Z,24.77
2019-03-22T10:47:38.774Z,24.73
2019-03-22T10:47:49.035Z,24.71
2019-03-22T10:47:59.212Z,24.68
2019-03-22T10:48:09.501Z,24.68
2019-03-22T10:48:19.774Z,24.67
2019-03-22T10:48:29.985Z,24.68
2019-03-22T10:48:40.858Z,24.68
2019-03-22T10:48:51.153Z,24.71
2019-03-22T10:49:01.351Z,24.73
2019-03-22T10:49:11.510Z,24.76
2019-03-22T10:49:21.670Z,24.80
2019-03-22T10:49:31.892Z,25.64
2019-03-22T10:49:42.383Z,26.39
2019-03-22T10:49:52.674Z,26.91
2019-03-22T10:50:02.849Z,27.28
2019-03-22T10:50:13.013Z,27.60
2019-03-22T10:50:23.228Z,27.85
2019-03-22T10:50:33.401Z,28.02
2019-03-22T10:50:45.334Z,27.90
2019-03-22T10:50:56.315Z,27.49
2019-03-22T10:51:06.488Z,27.21
2019-03-22T10:51:16.650Z,27.00
2019-03-22T10:53:25.653Z,25.60
2019-03-22T10:53:35.817Z,25.54
2019-03-22T10:53:45.986Z,25.50
2019-03-22T10:53:56.196Z,25.45
2019-03-22T10:54:06.371Z,25.40
2019-03-22T10:54:16.587Z,25.36
2019-03-22T10:54:26.752Z,25.35
2019-03-22T10:54:36.918Z,25.33
2019-03-22T10:54:47.065Z,25.32
2019-03-22T10:54:57.245Z,25.30
2019-03-22T10:55:23.540Z,25.30
2019-03-22T10:55:29.652Z,25.30
2019-03-22T10:55:39.705Z,25.28
2019-03-22T10:55:49.860Z,25.28
2019-03-22T10:56:00.017Z,25.28
2019-03-22T10:56:10.184Z,25.30
2019-03-22T10:56:20.358Z,25.28
2019-03-22T10:56:30.531Z,25.28
2019-03-22T10:56:40.693Z,25.27
2019-03-22T10:56:50.861Z,25.27
